Time;durP1;ratioP1;P1;durP2;ratioP2;P2;SDS_P1;SDS_P2;PMS_P1;PMS_P2;Temp;Humidity;BMP_temperature;BMP_pressure;BME280_temperature;BME280_humidity;BME280_pressure;Samples;Min_cycle;Max_cycle;Signal;HPM_P1;HPM_P2
2024/04/19 00:00:44;;;;;;;;;;;;;;;;;;5469577;26;19928;-72
2024/04/19 00:03:10;;;;;;;;;;;;;;;;;;5467256;26;19935;-71
2024/04/19 00:05:38;;;;;;;;;;;;;;;;;;5483468;26;20013;-73
2024/04/19 00:08:04;;;;;;;;;;;;;;;;;;5483027;26;19928;-73
2024/04/19 00:10:33;;;;;;;;;;;;;;;;;;5481515;26;20447;-71
2024/04/19 00:13:00;;;;;;;;;;;;;;;;;;5481843;26;19931;-71
2024/04/19 00:15:28;;;;;;;;;;;;;;;;;;5480581;26;19928;-71
2024/04/19 00:17:54;;;;;;;;;;;;;;;;;;5467096;26;19928;-71
2024/04/19 00:20:23;;;;;;;;;;;;;;;;;;5476877;26;19939;-73
2024/04/19 00:22:49;;;;;;;;;;;;;;;;;;5475212;26;20439;-71
2024/04/19 00:25:18;;;;;;;;;;;;;;;;;;5481693;26;19960;-72
2024/04/19 00:27:46;;;;;;;;;;;;;;;;;;5481617;26;19947;-72
2024/04/19 00:30:13;;;;;;;;;;;;;;;;;;5461893;26;20367;-72
2024/04/19 00:32:41;;;;;;;;;;;;;;;;;;5477702;26;20439;-72
2024/04/19 00:35:07;;;;;;;;;;;;;;;;;;5473954;26;19935;-71
2024/04/19 00:37:36;;;;;;;;;;;;;;;;;;5480787;26;20349;-71
2024/04/19 00:40:02;;;;;;;;;;;;;;;;;;5482587;26;20279;-71
2024/04/19 00:42:31;;;;;;;;;;;;;;;;;;5481698;26;20400;-71
2024/04/19 00:44:57;;;;;;;;;;;;;;;;;;5482553;26;19934;-70
2024/04/19 00:47:25;;;;;;;;;;;;;;;;;;5480672;26;20443;-72
2024/04/19 00:49:51;;;;;;;;;;;;;;;;;;5481496;26;19934;-72
2024/04/19 00:52:20;;;;;;;;;;;;;;;;;;5473079;26;19935;-72
2024/04/19 00:54:46;;;;;;;;;;;;;;;;;;5472576;26;19928;-72
2024/04/19 00:57:15;;;;;;;;;;;;;;;;;;5481386;26;19980;-72
2024/04/19 00:59:41;;;;;;;;;;;;;;;;;;5467376;26;20381;-72
2024/04/19 01:02:10;;;;;;;;;;;;;;;;;;5468156;26;19960;-72
2024/04/19 01:04:36;;;;;;;;;;;;;;;;;;5467196;26;20267;-72
2024/04/19 01:07:05;;;;;;;;;;;;;;;;;;5478817;26;19938;-72
2024/04/19 01:09:31;;;;;;;;;;;;;;;;;;5481309;26;19928;-72
2024/04/19 01:12:00;;;;;;;;;;;;;;;;;;5465837;26;19944;-72
2024/04/19 01:14:26;;;;;;;;;;;;;;;;;;5461511;26;19928;-72
2024/04/19 01:16:54;;;;;;;;;;;;;;;;;;5480754;26;19935;-72
2024/04/19 01:19:20;;;;;;;;;;;;;;;;;;5480317;26;19928;-72
2024/04/19 01:21:49;;;;;;;;;;;;;;;;;;5479553;26;19928;-72
2024/04/19 01:24:15;;;;;;;;;;;;;;;;;;5468220;26;20435;-73
2024/04/19 01:26:44;;;;;;;;;;;;;;;;;;5480720;26;20002;-73
2024/04/19 01:29:10;;;;;;;;;;;;;;;;;;5483022;26;19996;-73
2024/04/19 01:31:39;;;;;;;;;;;;;;;;;;5470583;26;19964;-73
2024/04/19 01:34:05;;;;;;;;;;;;;;;;;;5473140;26;19928;-73
2024/04/19 01:36:34;;;;;;;;;;;;;;;;;;5476169;26;20358;-72
2024/04/19 01:39:00;;;;;;;;;;;;;;;;;;5481768;26;19988;-73
2024/04/19 01:41:28;;;;;;;;;;;;;;;;;;5478264;26;19929;-73
2024/04/19 01:43:54;;;;;;;;;;;;;;;;;;5480493;26;19939;-73
2024/04/19 01:46:23;;;;;;;;;;;;;;;;;;5478802;26;19929;-73
2024/04/19 01:48:49;;;;;;;;;;;;;;;;;;5481749;26;19939;-73
2024/04/19 01:51:18;;;;;;;;;;;;;;;;;;5479889;26;20294;-73
2024/04/19 01:53:44;;;;;;;;;;;;;;;;;;5481494;26;19939;-73
2024/04/19 01:56:13;;;;;;;;;;;;;;;;;;5468227;26;19935;-73
2024/04/19 01:58:39;;;;;;;;;;;;;;;;;;5469644;26;19929;-73
2024/04/19 02:01:07;;;;;;;;;;;;;;;;;;5466309;26;19936;-74
2024/04/19 02:03:36;;;;;;;;;;;;;;;;;;5480993;26;19934;-73
2024/04/19 02:06:02;;;;;;;;;;;;;;;;;;5481606;26;19935;-74
2024/04/19 02:08:31;;;;;;;;;;;;;;;;;;5481519;26;19935;-72
2024/04/19 02:11:00;;;;;;;;;;;;;;;;;;5472424;26;19939;-73
2024/04/19 02:13:26;;;;;;;;;;;;;;;;;;5471807;26;20004;-73
2024/04/19 02:15:54;;;;;;;;;;;;;;;;;;5475168;26;19935;-73
2024/04/19 02:18:20;;;;;;;;;;;;;;;;;;5462494;26;19928;-72
2024/04/19 02:20:49;;;;;;;;;;;;;;;;;;5471125;26;19936;-72
2024/04/19 02:23:15;;;;;;;;;;;;;;;;;;5480744;26;20000;-72
2024/04/19 02:25:44;;;;;;;;;;;;;;;;;;5471493;26;20003;-73
2024/04/19 02:31:02;;;;;;;;;;;;;;;;;;5403882;26;20386;-72
2024/04/19 02:33:32;;;;;;;;;;;;;;;;;;5388617;26;19937;-73
2024/04/19 02:36:00;;;;;;;;;;;;;;;;;;5403683;26;20372;-72
2024/04/19 02:38:29;;;;;;;;;;;;;;;;;;5399268;26;19930;-73
2024/04/19 02:40:55;;;;;;;;;;;;;;;;;;5404524;26;19929;-73
2024/04/19 02:43:24;;;;;;;;;;;;;;;;;;5399788;26;20015;-74
2024/04/19 02:45:53;;;;;;;;;;;;;;;;;;5398967;26;19993;-73
2024/04/19 02:48:21;;;;;;;;;;;;;;;;;;5408716;26;20352;-73
2024/04/19 02:50:50;;;;;;;;;;;;;;;;;;5405683;26;19929;-73
2024/04/19 02:53:19;;;;;;;;;;;;;;;;;;5401283;26;19944;-73
2024/04/19 02:55:47;;;;;;;;;;;;;;;;;;5404585;26;19940;-73
2024/04/19 02:58:16;;;;;;;;;;;;;;;;;;5402561;26;19932;-73
2024/04/19 03:00:45;;;;;;;;;;;;;;;;;;5402438;26;19976;-73
2024/04/19 03:03:13;;;;;;;;;;;;;;;;;;5404803;26;19929;-73
2024/04/19 03:05:42;;;;;;;;;;;;;;;;;;5404108;26;19929;-72
2024/04/19 03:08:11;;;;;;;;;;;;;;;;;;5451581;26;20373;-72
2024/04/19 03:10:39;;;;;;;;;;;;;;;;;;5480871;26;19942;-71
2024/04/19 03:13:08;;;;;;;;;;;;;;;;;;5484496;26;19928;-71
2024/04/19 03:15:37;;;;;;;;;;;;;;;;;;5482788;26;19954;-72
2024/04/19 03:18:06;;;;;;;;;;;;;;;;;;5484820;26;20286;-72
2024/04/19 03:20:35;;;;;;;;;;;;;;;;;;5465639;26;19935;-71
2024/04/19 03:23:04;;;;;;;;;;;;;;;;;;5481335;26;19939;-72
2024/04/19 03:25:33;;;;;;;;;;;;;;;;;;5479480;26;20469;-70
2024/04/19 03:28:02;;;;;;;;;;;;;;;;;;5480403;26;20502;-72
2024/04/19 03:30:33;;;;;;;;;;;;;;;;;;5482597;26;19942;-72
2024/04/19 03:33:01;;;;;;;;;;;;;;;;;;5482889;26;19995;-72
2024/04/19 03:35:30;;;;;;;;;;;;;;;;;;5478774;26;19943;-73
2024/04/19 03:37:59;;;;;;;;;;;;;;;;;;5471634;26;19928;-73
2024/04/19 03:40:28;;;;;;;;;;;;;;;;;;5479377;26;19928;-73
2024/04/19 03:42:58;;;;;;;;;;;;;;;;;;5459099;26;20279;-73
2024/04/19 03:45:40;;;;;;;;;;;;;;;;;;5470397;26;19943;-73
2024/04/19 03:48:09;;;;;;;;;;;;;;;;;;5482459;26;19935;-73
2024/04/19 03:50:38;;;;;;;;;;;;;;;;;;5481239;26;19935;-72
2024/04/19 03:53:06;;;;;;;;;;;;;;;;;;5472626;26;19944;-72
2024/04/19 03:55:35;;;;;;;;;;;;;;;;;;5482117;26;19943;-72
2024/04/19 03:58:04;;;;;;;;;;;;;;;;;;5476458;26;19928;-73
2024/04/19 04:00:32;;;;;;;;;;;;;;;;;;5481176;26;20355;-72
2024/04/19 04:03:01;;;;;;;;;;;;;;;;;;5474987;26;19935;-73
2024/04/19 04:05:30;;;;;;;;;;;;;;;;;;5477350;26;19935;-73
2024/04/19 04:07:58;;;;;;;;;;;;;;;;;;5482462;26;19928;-73
2024/04/19 04:10:27;;;;;;;;;;;;;;;;;;5477712;26;19999;-73
2024/04/19 04:12:56;;;;;;;;;;;;;;;;;;5483112;26;19934;-73
2024/04/19 04:15:24;;;;;;;;;;;;;;;;;;5478721;26;20018;-74
2024/04/19 04:17:54;;;;;;;;;;;;;;;;;;5469506;26;19936;-72
2024/04/19 04:20:22;;;;;;;;;;;;;;;;;;5464164;26;19955;-72
2024/04/19 04:22:51;;;;;;;;;;;;;;;;;;5483562;26;19927;-73
2024/04/19 04:25:20;;;;;;;;;;;;;;;;;;5476920;26;19928;-74
2024/04/19 04:27:48;;;;;;;;;;;;;;;;;;5466803;26;19939;-72
2024/04/19 04:30:17;;;;;;;;;;;;;;;;;;5476014;26;20049;-73
2024/04/19 04:32:46;;;;;;;;;;;;;;;;;;5481767;26;20263;-73
2024/04/19 04:35:14;;;;;;;;;;;;;;;;;;5465179;26;19933;-73
2024/04/19 04:37:45;;;;;;;;;;;;;;;;;;5470815;26;20227;-73
2024/04/19 04:40:14;;;;;;;;;;;;;;;;;;5482681;26;19939;-71
2024/04/19 04:42:42;;;;;;;;;;;;;;;;;;5481092;26;19981;-73
2024/04/19 04:45:12;;;;;;;;;;;;;;;;;;5478458;26;19939;-72
2024/04/19 04:47:40;;;;;;;;;;;;;;;;;;5480779;26;19958;-73
2024/04/19 04:50:09;;;;;;;;;;;;;;;;;;5468680;26;19935;-73
2024/04/19 04:52:38;;;;;;;;;;;;;;;;;;5475433;26;19928;-72
2024/04/19 04:55:07;;;;;;;;;;;;;;;;;;5486033;26;19932;-73
2024/04/19 04:57:36;;;;;;;;;;;;;;;;;;5481731;26;19928;-74
2024/04/19 05:00:05;;;;;;;;;;;;;;;;;;5480608;26;19962;-73
2024/04/19 05:02:33;;;;;;;;;;;;;;;;;;5471952;26;20009;-73
2024/04/19 05:05:02;;;;;;;;;;;;;;;;;;5476628;26;19928;-73
2024/04/19 05:07:31;;;;;;;;;;;;;;;;;;5474505;26;19928;-73
2024/04/19 05:09:59;;;;;;;;;;;;;;;;;;5479763;26;19973;-73
2024/04/19 05:12:28;;;;;;;;;;;;;;;;;;5480614;26;19928;-73
2024/04/19 05:14:58;;;;;;;;;;;;;;;;;;5479506;26;20017;-73
2024/04/19 05:17:27;;;;;;;;;;;;;;;;;;5479600;26;20469;-74
2024/04/19 05:19:56;;;;;;;;;;;;;;;;;;5466241;26;19935;-69
2024/04/19 05:22:25;;;;;;;;;;;;;;;;;;5469539;26;20292;-69
2024/04/19 05:24:54;;;;;;;;;;;;;;;;;;5474007;26;20354;-68
2024/04/19 05:27:22;;;;;;;;;;;;;;;;;;5477977;26;20500;-68
2024/04/19 05:29:51;;;;;;;;;;;;;;;;;;5478807;26;19995;-69
2024/04/19 05:32:20;;;;;;;;;;;;;;;;;;5471395;26;19936;-69
2024/04/19 05:34:48;;;;;;;;;;;;;;;;;;5478968;26;20345;-69
2024/04/19 05:37:19;;;;;;;;;;;;;;;;;;5469993;26;20367;-69
2024/04/19 05:39:47;;;;;;;;;;;;;;;;;;5474739;26;19928;-69
2024/04/19 05:42:16;;;;;;;;;;;;;;;;;;5478643;26;19935;-69
2024/04/19 05:44:45;;;;;;;;;;;;;;;;;;5468411;26;19928;-68
2024/04/19 05:47:13;;;;;;;;;;;;;;;;;;5474435;26;19927;-69
2024/04/19 05:49:43;;;;;;;;;;;;;;;;;;5478294;26;19927;-70
2024/04/19 05:52:11;;;;;;;;;;;;;;;;;;5479502;26;20386;-70
2024/04/19 05:54:40;;;;;;;;;;;;;;;;;;5478167;26;19932;-70
2024/04/19 05:57:09;;;;;;;;;;;;;;;;;;5477003;26;19935;-70
2024/04/19 05:59:37;;;;;;;;;;;;;;;;;;5481141;26;19928;-70
2024/04/19 06:02:06;;;;;;;;;;;;;;;;;;5481221;26;19944;-70
2024/04/19 06:04:35;;;;;;;;;;;;;;;;;;5481088;26;19935;-71
2024/04/19 06:07:04;;;;;;;;;;;;;;;;;;5482246;26;19928;-71
2024/04/19 06:09:32;;;;;;;;;;;;;;;;;;5468554;26;20410;-72
2024/04/19 06:12:02;;;;;;;;;;;;;;;;;;5473544;26;19928;-71
2024/04/19 06:14:30;;;;;;;;;;;;;;;;;;5459581;26;20414;-71
2024/04/19 06:16:59;;;;;;;;;;;;;;;;;;5481260;26;20365;-71
2024/04/19 06:19:28;;;;;;;;;;;;;;;;;;5480873;26;19928;-71
2024/04/19 06:21:56;;;;;;;;;;;;;;;;;;5481750;26;19935;-71
2024/04/19 06:24:26;;;;;;;;;;;;;;;;;;5481162;26;19932;-70
2024/04/19 06:26:54;;;;;;;;;;;;;;;;;;5480500;26;21109;-72
2024/04/19 06:29:23;;;;;;;;;;;;;;;;;;5480539;26;19935;-71
2024/04/19 06:31:52;;;;;;;;;;;;;;;;;;5477754;26;19928;-72
2024/04/19 06:34:21;;;;;;;;;;;;;;;;;;5458695;26;20484;-73
2024/04/19 06:36:49;;;;;;;;;;;;;;;;;;5462492;26;19935;-73
2024/04/19 06:39:18;;;;;;;;;;;;;;;;;;5479331;26;19932;-71
2024/04/19 06:41:47;;;;;;;;;;;;;;;;;;5461294;26;19928;-72
2024/04/19 06:44:15;;;;;;;;;;;;;;;;;;5477537;26;19927;-72
2024/04/19 06:46:44;;;;;;;;;;;;;;;;;;5478413;26;19927;-73
2024/04/19 06:49:13;;;;;;;;;;;;;;;;;;5482214;26;19927;-71
2024/04/19 06:51:41;;;;;;;;;;;;;;;;;;5475996;26;20263;-72
2024/04/19 06:54:10;;;;;;;;;;;;;;;;;;5474243;26;20259;-72
2024/04/19 06:56:39;;;;;;;;;;;;;;;;;;5458037;26;19928;-72
2024/04/19 06:59:07;;;;;;;;;;;;;;;;;;5468573;26;19928;-72
2024/04/19 07:01:36;;;;;;;;;;;;;;;;;;5474438;26;19960;-74
2024/04/19 07:04:05;;;;;;;;;;;;;;;;;;5468024;26;20604;-70
2024/04/19 07:06:33;;;;;;;;;;;;;;;;;;5467856;26;19936;-71
2024/04/19 07:09:02;;;;;;;;;;;;;;;;;;5461620;26;19929;-70
2024/04/19 07:11:31;;;;;;;;;;;;;;;;;;5472717;26;19928;-71
2024/04/19 07:13:59;;;;;;;;;;;;;;;;;;5469127;26;19936;-70
2024/04/19 07:16:28;;;;;;;;;;;;;;;;;;5494518;26;19927;-70
2024/04/19 07:18:57;;;;;;;;;;;;;;;;;;5462684;26;20275;-70
2024/04/19 07:21:25;;;;;;;;;;;;;;;;;;5476332;26;20362;-72
2024/04/19 07:23:54;;;;;;;;;;;;;;;;;;5466491;26;19928;-72
2024/04/19 07:26:23;;;;;;;;;;;;;;;;;;5472936;26;19935;-72
2024/04/19 07:28:52;;;;;;;;;;;;;;;;;;5475725;26;20489;-70
2024/04/19 07:31:20;;;;;;;;;;;;;;;;;;5474286;26;19927;-70
2024/04/19 07:33:49;;;;;;;;;;;;;;;;;;5476140;26;20270;-72
2024/04/19 07:36:18;;;;;;;;;;;;;;;;;;5476424;26;19928;-72
2024/04/19 07:38:47;;;;;;;;;;;;;;;;;;5474852;26;19928;-70
2024/04/19 07:41:17;;;;;;;;;;;;;;;;;;5484105;26;19927;-70
2024/04/19 07:43:46;;;;;;;;;;;;;;;;;;5493692;26;19928;-71
2024/04/19 07:46:16;;;;;;;;;;;;;;;;;;5498232;25;20321;-70
2024/04/19 07:48:44;;;;;;;;;;;;;;;;;;5472384;26;20010;-70
2024/04/19 07:51:10;;;;;;;;;;;;;;;;;;5479166;26;20379;-71
2024/04/19 07:53:39;;;;;;;;;;;;;;;;;;5478004;26;20018;-70
2024/04/19 07:56:08;;;;;;;;;;;;;;;;;;5469940;26;19935;-71
2024/04/19 07:58:36;;;;;;;;;;;;;;;;;;5469182;26;20382;-70
2024/04/19 08:01:05;;;;;;;;;;;;;;;;;;5481094;26;19939;-70
2024/04/19 08:03:35;;;;;;;;;;;;;;;;;;5475839;26;19935;-71
2024/04/19 08:06:04;;;;;;;;;;;;;;;;;;5471502;26;19949;-71
2024/04/19 08:08:32;;;;;;;;;;;;;;;;;;5469332;26;19950;-72
2024/04/19 08:11:02;;;;;;;;;;;;;;;;;;5470494;26;19936;-71
2024/04/19 08:13:30;;;;;;;;;;;;;;;;;;5473961;26;20016;-70
2024/04/19 08:16:00;;;;;;;;;;;;;;;;;;5467317;26;19928;-71
2024/04/19 08:18:28;;;;;;;;;;;;;;;;;;5471406;26;20376;-70
2024/04/19 08:20:57;;;;;;;;;;;;;;;;;;5477258;26;19932;-70
2024/04/19 08:23:26;;;;;;;;;;;;;;;;;;5470053;26;19941;-71
2024/04/19 08:25:55;;;;;;;;;;;;;;;;;;5479324;26;19936;-69
2024/04/19 08:28:25;;;;;;;;;;;;;;;;;;5481682;26;20444;-69
2024/04/19 08:30:54;;;;;;;;;;;;;;;;;;5472960;26;19928;-73
2024/04/19 08:33:23;;;;;;;;;;;;;;;;;;5480184;26;19967;-73
2024/04/19 08:35:51;;;;;;;;;;;;;;;;;;5477874;26;20023;-72
2024/04/19 08:38:20;;;;;;;;;;;;;;;;;;5477173;26;20321;-71
2024/04/19 08:40:49;;;;;;;;;;;;;;;;;;5467388;26;20380;-72
2024/04/19 08:43:18;;;;;;;;;;;;;;;;;;5489884;26;19928;-72
2024/04/19 08:45:47;;;;;;;;;;;;;;;;;;5470121;26;19936;-72
2024/04/19 08:48:15;;;;;;;;;;;;;;;;;;5475416;26;20246;-72
2024/04/19 08:50:44;;;;;;;;;;;;;;;;;;5496473;26;19934;-72
2024/04/19 08:53:13;;;;;;;;;;;;;;;;;;5479588;25;21469;-72
2024/04/19 08:55:41;;;;;;;;;;;;;;;;;;5473132;26;19935;-72
2024/04/19 08:58:10;;;;;;;;;;;;;;;;;;5477238;26;19939;-73
2024/04/19 09:00:39;;;;;;;;;;;;;;;;;;5471747;26;19939;-73
2024/04/19 09:03:08;;;;;;;;;;;;;;;;;;5468571;26;19935;-72
2024/04/19 09:05:36;;;;;;;;;;;;;;;;;;5468369;26;19936;-72
2024/04/19 09:08:05;;;;;;;;;;;;;;;;;;5479150;26;19928;-72
2024/04/19 09:10:34;;;;;;;;;;;;;;;;;;5472909;26;19948;-73
2024/04/19 09:13:03;;;;;;;;;;;;;;;;;;5467622;26;19940;-72
2024/04/19 09:15:31;;;;;;;;;;;;;;;;;;5474499;26;19959;-73
2024/04/19 09:18:00;;;;;;;;;;;;;;;;;;5471390;26;19928;-73
2024/04/19 09:20:29;;;;;;;;;;;;;;;;;;5481959;25;19935;-73
2024/04/19 09:22:57;;;;;;;;;;;;;;;;;;5477923;26;19936;-72
2024/04/19 09:25:26;;;;;;;;;;;;;;;;;;5480970;26;19998;-73
2024/04/19 09:27:56;;;;;;;;;;;;;;;;;;5478060;26;19928;-72
2024/04/19 09:30:24;;;;;;;;;;;;;;;;;;5478092;26;20444;-74
2024/04/19 09:32:53;;;;;;;;;;;;;;;;;;5475153;26;19936;-74
2024/04/19 09:35:22;;;;;;;;;;;;;;;;;;5478489;26;19931;-75
2024/04/19 09:37:51;;;;;;;;;;;;;;;;;;5478016;26;19928;-72
2024/04/19 09:40:19;;;;;;;;;;;;;;;;;;5477721;26;19939;-74
2024/04/19 09:42:48;;;;;;;;;;;;;;;;;;5476024;26;19935;-63
2024/04/19 09:45:17;;;;;;;;;;;;;;;;;;5472195;26;19927;-63
2024/04/19 09:47:45;;;;;;;;;;;;;;;;;;5479620;26;19928;-62
2024/04/19 09:50:14;;;;;;;;;;;;;;;;;;5480409;26;19928;-62
2024/04/19 09:52:43;;;;;;;;;;;;;;;;;;5479587;26;20042;-62
2024/04/19 09:55:11;;;;;;;;;;;;;;;;;;5473223;26;19932;-63
2024/04/19 09:57:40;;;;;;;;;;;;;;;;;;5473992;26;19939;-65
2024/04/19 10:00:09;;;;;;;;;;;;;;;;;;5477956;26;19928;-62
2024/04/19 10:02:38;;;;;;;;;;;;;;;;;;5467530;26;19976;-62
2024/04/19 10:05:06;;;;;;;;;;;;;;;;;;5476689;26;20411;-63
2024/04/19 10:07:35;;;;;;;;;;;;;;;;;;5458677;26;19928;-62
2024/04/19 10:10:04;;;;;;;;;;;;;;;;;;5480014;26;19935;-62
2024/04/19 10:12:33;;;;;;;;;;;;;;;;;;5472675;26;20343;-62
2024/04/19 10:15:02;;;;;;;;;;;;;;;;;;5481299;26;19928;-72
2024/04/19 10:17:30;;;;;;;;;;;;;;;;;;5477696;26;19928;-72
2024/04/19 10:19:59;;;;;;;;;;;;;;;;;;5463814;26;19939;-73
2024/04/19 10:22:28;;;;;;;;;;;;;;;;;;5481271;26;20455;-72
2024/04/19 10:24:57;;;;;;;;;;;;;;;;;;5480878;26;19927;-72
2024/04/19 10:27:23;;;;;;;;;;;;;;;;;;5473852;26;19928;-72
2024/04/19 10:29:51;;;;;;;;;;;;;;;;;;5475116;26;20384;-72
2024/04/19 10:32:20;;;;;;;;;;;;;;;;;;5469186;26;19928;-72
2024/04/19 10:34:49;;;;;;;;;;;;;;;;;;5473793;26;19935;-72
2024/04/19 10:37:18;;;;;;;;;;;;;;;;;;5468371;26;19928;-72
2024/04/19 10:39:47;;;;;;;;;;;;;;;;;;5466415;26;19978;-72
2024/04/19 10:42:16;;;;;;;;;;;;;;;;;;5471882;26;19935;-73
2024/04/19 10:44:46;;;;;;;;;;;;;;;;;;5478032;26;20333;-73
2024/04/19 10:47:15;;;;;;;;;;;;;;;;;;5476560;26;20474;-72
2024/04/19 10:49:43;;;;;;;;;;;;;;;;;;5476340;26;19935;-72
2024/04/19 10:52:12;;;;;;;;;;;;;;;;;;5479107;26;19928;-73
2024/04/19 10:54:41;;;;;;;;;;;;;;;;;;5482579;26;20823;-72
2024/04/19 10:57:09;;;;;;;;;;;;;;;;;;5471272;26;19970;-73
2024/04/19 10:59:38;;;;;;;;;;;;;;;;;;5481327;26;20037;-73
2024/04/19 11:02:08;;;;;;;;;;;;;;;;;;5473447;26;20380;-70
2024/04/19 11:04:37;;;;;;;;;;;;;;;;;;5466865;26;19935;-75
2024/04/19 11:07:05;;;;;;;;;;;;;;;;;;5481437;26;19941;-71
2024/04/19 11:09:34;;;;;;;;;;;;;;;;;;5498225;26;20286;-69
2024/04/19 11:12:03;;;;;;;;;;;;;;;;;;5489639;26;19928;-71
2024/04/19 11:14:31;;;;;;;;;;;;;;;;;;5481541;26;19981;-71
2024/04/19 11:17:01;;;;;;;;;;;;;;;;;;5463980;26;20533;-71
2024/04/19 11:19:30;;;;;;;;;;;;;;;;;;5478321;26;19931;-71
2024/04/19 11:21:59;;;;;;;;;;;;;;;;;;5481772;26;20062;-71
2024/04/19 11:24:30;;;;;;;;;;;;;;;;;;5473200;26;19940;-71
2024/04/19 11:26:58;;;;;;;;;;;;;;;;;;5472036;26;19936;-71
2024/04/19 11:29:27;;;;;;;;;;;;;;;;;;5486601;26;19977;-71
2024/04/19 11:31:56;;;;;;;;;;;;;;;;;;5483813;26;19935;-72
2024/04/19 11:34:26;;;;;;;;;;;;;;;;;;5484209;26;19927;-71
2024/04/19 11:36:55;;;;;;;;;;;;;;;;;;5477424;26;20021;-72
2024/04/19 11:39:23;;;;;;;;;;;;;;;;;;5481453;26;19928;-72
2024/04/19 11:41:52;;;;;;;;;;;;;;;;;;5472512;26;19939;-71
2024/04/19 11:44:21;;;;;;;;;;;;;;;;;;5472658;26;19939;-71
2024/04/19 11:46:50;;;;;;;;;;;;;;;;;;5478073;26;19935;-72
2024/04/19 11:49:19;;;;;;;;;;;;;;;;;;5496750;25;19928;-71
2024/04/19 11:51:48;;;;;;;;;;;;;;;;;;5482347;26;19935;-69
2024/04/19 11:54:17;;;;;;;;;;;;;;;;;;5470965;26;19928;-68
2024/04/19 11:56:46;;;;;;;;;;;;;;;;;;5482139;26;19983;-69
2024/04/19 11:59:15;;;;;;;;;;;;;;;;;;5468728;26;20259;-70
2024/04/19 12:01:43;;;;;;;;;;;;;;;;;;5483590;26;20393;-69
2024/04/19 12:04:12;;;;;;;;;;;;;;;;;;5483049;26;19928;-70
2024/04/19 12:06:41;;;;;;;;;;;;;;;;;;5482129;26;19928;-69
2024/04/19 12:09:09;;;;;;;;;;;;;;;;;;5481883;26;19935;-69
2024/04/19 12:11:38;;;;;;;;;;;;;;;;;;5470300;26;19940;-69
2024/04/19 12:14:07;;;;;;;;;;;;;;;;;;5482269;26;19935;-69
2024/04/19 12:16:36;;;;;;;;;;;;;;;;;;5467991;26;19928;-68
2024/04/19 12:19:04;;;;;;;;;;;;;;;;;;5479157;26;19931;-69
2024/04/19 12:21:33;;;;;;;;;;;;;;;;;;5471250;26;19930;-69
2024/04/19 12:24:02;;;;;;;;;;;;;;;;;;5474875;26;19928;-69
2024/04/19 12:26:30;;;;;;;;;;;;;;;;;;5476458;26;19935;-69
2024/04/19 12:28:59;;;;;;;;;;;;;;;;;;5470904;26;19932;-69
2024/04/19 12:31:28;;;;;;;;;;;;;;;;;;5474194;26;19928;-70
2024/04/19 12:33:56;;;;;;;;;;;;;;;;;;5469402;26;19927;-69
2024/04/19 12:36:25;;;;;;;;;;;;;;;;;;5476062;26;19935;-68
2024/04/19 12:38:54;;;;;;;;;;;;;;;;;;5467614;26;19928;-69
2024/04/19 12:41:23;;;;;;;;;;;;;;;;;;5471542;26;19928;-69
2024/04/19 12:43:51;;;;;;;;;;;;;;;;;;5479084;26;20036;-69
2024/04/19 12:46:20;;;;;;;;;;;;;;;;;;5487628;26;20308;-69
2024/04/19 12:48:49;;;;;;;;;;;;;;;;;;5468258;26;19928;-69
2024/04/19 12:51:23;;;;;;;;;;;;;;;;;;5475306;26;19990;-69
2024/04/19 12:53:52;;;;;;;;;;;;;;;;;;5475801;26;19968;-69
2024/04/19 12:56:20;;;;;;;;;;;;;;;;;;5467600;26;19928;-68
2024/04/19 12:58:49;;;;;;;;;;;;;;;;;;5474831;26;19928;-67
2024/04/19 13:01:18;;;;;;;;;;;;;;;;;;5477286;26;19943;-67
2024/04/19 13:03:46;;;;;;;;;;;;;;;;;;5475011;26;19928;-67
2024/04/19 13:06:15;;;;;;;;;;;;;;;;;;5470571;26;19928;-69
2024/04/19 13:08:44;;;;;;;;;;;;;;;;;;5467733;26;19932;-67
2024/04/19 13:11:13;;;;;;;;;;;;;;;;;;5462547;26;19928;-67
2024/04/19 13:13:41;;;;;;;;;;;;;;;;;;5473009;26;20456;-68
2024/04/19 13:16:10;;;;;;;;;;;;;;;;;;5476581;26;19943;-67
2024/04/19 13:18:39;;;;;;;;;;;;;;;;;;5468818;26;19927;-67
2024/04/19 13:21:08;;;;;;;;;;;;;;;;;;5477019;26;20027;-66
2024/04/19 13:23:37;;;;;;;;;;;;;;;;;;5464303;26;19928;-67
2024/04/19 13:26:05;;;;;;;;;;;;;;;;;;5478347;26;19927;-68
2024/04/19 13:28:34;;;;;;;;;;;;;;;;;;5479874;26;19935;-71
2024/04/19 13:31:03;;;;;;;;;;;;;;;;;;5450446;26;20035;-73
2024/04/19 13:33:32;;;;;;;;;;;;;;;;;;5471142;26;19928;-73
2024/04/19 13:36:00;;;;;;;;;;;;;;;;;;5469445;26;20003;-73
2024/04/19 13:38:29;;;;;;;;;;;;;;;;;;5465132;26;19928;-72
2024/04/19 13:40:55;;;;;;;;;;;;;;;;;;5469902;26;19928;-72
2024/04/19 13:43:24;;;;;;;;;;;;;;;;;;5477438;26;20062;-72
2024/04/19 13:45:54;;;;;;;;;;;;;;;;;;5473102;26;19928;-71
2024/04/19 13:48:25;;;;;;;;;;;;;;;;;;5479445;26;19954;-72
2024/04/19 13:50:54;;;;;;;;;;;;;;;;;;5470142;26;20444;-71
2024/04/19 13:53:23;;;;;;;;;;;;;;;;;;5469527;26;20369;-74
2024/04/19 13:55:51;;;;;;;;;;;;;;;;;;5463460;26;20036;-71
2024/04/19 13:58:23;;;;;;;;;;;;;;;;;;5478739;26;19936;-70
2024/04/19 14:00:52;;;;;;;;;;;;;;;;;;5482644;26;19940;-70
2024/04/19 14:03:21;;;;;;;;;;;;;;;;;;5464650;26;19963;-70
2024/04/19 14:05:50;;;;;;;;;;;;;;;;;;5461777;26;19943;-68
2024/04/19 14:08:18;;;;;;;;;;;;;;;;;;5463693;26;19973;-68
2024/04/19 14:10:47;;;;;;;;;;;;;;;;;;5462834;26;19997;-69
2024/04/19 14:13:16;;;;;;;;;;;;;;;;;;5490462;26;19934;-68
2024/04/19 14:15:45;;;;;;;;;;;;;;;;;;5473682;26;20266;-69
2024/04/19 14:18:14;;;;;;;;;;;;;;;;;;5471578;26;20232;-67
2024/04/19 14:20:45;;;;;;;;;;;;;;;;;;5475671;26;19928;-67
2024/04/19 14:23:14;;;;;;;;;;;;;;;;;;5473276;26;19960;-72
2024/04/19 14:25:43;;;;;;;;;;;;;;;;;;5465666;26;19943;-70
2024/04/19 14:28:12;;;;;;;;;;;;;;;;;;5474177;26;20069;-71
2024/04/19 14:30:41;;;;;;;;;;;;;;;;;;5459610;26;20386;-71
2024/04/19 14:33:10;;;;;;;;;;;;;;;;;;5478718;26;20573;-71
2024/04/19 14:35:42;;;;;;;;;;;;;;;;;;5475064;26;19928;-73
2024/04/19 14:38:10;;;;;;;;;;;;;;;;;;5464937;26;19978;-73
2024/04/19 14:40:39;;;;;;;;;;;;;;;;;;5475273;26;19928;-71
2024/04/19 14:43:08;;;;;;;;;;;;;;;;;;5465948;26;19943;-71
2024/04/19 14:45:37;;;;;;;;;;;;;;;;;;5474918;26;19935;-72
2024/04/19 14:48:05;;;;;;;;;;;;;;;;;;5465109;26;19936;-71
2024/04/19 14:50:34;;;;;;;;;;;;;;;;;;5460631;26;19928;-71
2024/04/19 14:53:03;;;;;;;;;;;;;;;;;;5468245;26;19928;-72
2024/04/19 14:55:32;;;;;;;;;;;;;;;;;;5466229;26;19935;-71
2024/04/19 14:58:00;;;;;;;;;;;;;;;;;;5470178;26;19962;-71
2024/04/19 15:00:27;;;;;;;;;;;;;;;;;;5471822;26;19936;-69
2024/04/19 15:02:56;;;;;;;;;;;;;;;;;;5470240;26;20059;-66
2024/04/19 15:05:25;;;;;;;;;;;;;;;;;;5468924;26;19928;-67
2024/04/19 15:07:53;;;;;;;;;;;;;;;;;;5473820;26;19931;-66
2024/04/19 15:10:22;;;;;;;;;;;;;;;;;;5475493;26;20516;-67
2024/04/19 15:12:51;;;;;;;;;;;;;;;;;;5480360;26;20035;-67
2024/04/19 15:15:19;;;;;;;;;;;;;;;;;;5473130;26;19928;-67
2024/04/19 15:17:50;;;;;;;;;;;;;;;;;;5469715;26;20498;-66
2024/04/19 15:20:18;;;;;;;;;;;;;;;;;;5467351;26;19932;-67
2024/04/19 15:22:47;;;;;;;;;;;;;;;;;;5475982;26;19940;-67
2024/04/19 15:25:16;;;;;;;;;;;;;;;;;;5468902;26;19935;-65
2024/04/19 15:27:44;;;;;;;;;;;;;;;;;;5477484;26;19928;-66
2024/04/19 15:30:13;;;;;;;;;;;;;;;;;;5472750;26;19928;-66
2024/04/19 15:32:42;;;;;;;;;;;;;;;;;;5476170;26;19928;-66
2024/04/19 15:35:12;;;;;;;;;;;;;;;;;;5473372;26;19928;-65
2024/04/19 15:37:42;;;;;;;;;;;;;;;;;;5472415;26;20377;-66
2024/04/19 15:40:12;;;;;;;;;;;;;;;;;;5476885;26;19927;-65
2024/04/19 15:42:41;;;;;;;;;;;;;;;;;;5472618;26;20922;-66
2024/04/19 15:45:09;;;;;;;;;;;;;;;;;;5471955;26;19928;-66
2024/04/19 15:47:38;;;;;;;;;;;;;;;;;;5478565;26;19928;-66
2024/04/19 15:50:07;;;;;;;;;;;;;;;;;;5472332;26;20445;-66
2024/04/19 15:52:35;;;;;;;;;;;;;;;;;;5478046;26;19928;-66
2024/04/19 15:55:04;;;;;;;;;;;;;;;;;;5475451;26;19935;-66
2024/04/19 15:57:33;;;;;;;;;;;;;;;;;;5475087;26;20559;-66
2024/04/19 16:00:02;;;;;;;;;;;;;;;;;;5471766;26;20091;-66
2024/04/19 16:02:30;;;;;;;;;;;;;;;;;;5476260;26;19935;-66
2024/04/19 16:04:59;;;;;;;;;;;;;;;;;;5479234;26;20370;-68
2024/04/19 16:07:28;;;;;;;;;;;;;;;;;;5471256;26;19935;-66
2024/04/19 16:09:56;;;;;;;;;;;;;;;;;;5468733;26;19940;-66
2024/04/19 16:12:25;;;;;;;;;;;;;;;;;;5474762;26;19955;-67
2024/04/19 16:14:54;;;;;;;;;;;;;;;;;;5472111;26;19928;-66
2024/04/19 16:17:23;;;;;;;;;;;;;;;;;;5469780;26;19939;-66
2024/04/19 16:19:52;;;;;;;;;;;;;;;;;;5468777;26;19928;-67
2024/04/19 16:22:20;;;;;;;;;;;;;;;;;;5463482;26;19936;-66
2024/04/19 16:24:49;;;;;;;;;;;;;;;;;;5478258;26;19939;-67
2024/04/19 16:27:18;;;;;;;;;;;;;;;;;;5476717;26;20010;-67
2024/04/19 16:29:46;;;;;;;;;;;;;;;;;;5484179;26;19996;-67
2024/04/19 16:32:15;;;;;;;;;;;;;;;;;;5489099;26;19935;-67
2024/04/19 16:34:44;;;;;;;;;;;;;;;;;;5469121;26;19928;-67
2024/04/19 16:37:12;;;;;;;;;;;;;;;;;;5463564;26;19935;-66
2024/04/19 16:39:41;;;;;;;;;;;;;;;;;;5474466;26;20386;-67
2024/04/19 16:42:10;;;;;;;;;;;;;;;;;;5472133;26;20808;-67
2024/04/19 16:44:40;;;;;;;;;;;;;;;;;;5477183;26;19928;-67
2024/04/19 16:47:09;;;;;;;;;;;;;;;;;;5475189;26;20377;-67
2024/04/19 16:49:38;;;;;;;;;;;;;;;;;;5475806;26;19935;-67
2024/04/19 16:52:07;;;;;;;;;;;;;;;;;;5473879;26;19928;-67
2024/04/19 16:54:36;;;;;;;;;;;;;;;;;;5475558;26;19963;-67
2024/04/19 16:57:02;;;;;;;;;;;;;;;;;;5469132;26;19931;-67